Hlavní strana
METAR-TAF:

METAR-TAF

Letiště :

Harrisburg-Raleigh Airport

Harrisburg, Illinois, Spojené státy americké

zeměpisná šířka: 37-48-41N, zeměpisná délka: 088-32-57W, výška: 121 m

Aktuální stav počasí

Zpráva byla vytvořena před 14 minutami, v 00:15 UTC
Severní vítr 10 kt s nárazy do 16 kt
Teplota 9°C
Vlhkost vzduchu 87%
Tlak 1005 hPa
Viditelnost: 16.1 km
Zataženo ve výšce 3600 ft
slabý déšť

METAR: KHSB 200015Z AUTO 35010G16KT 10SM -RA OVC036 09/07 A2968 RMK AO2 T00860067

Čas: 19:29 (00:29 UTC)


TAF: chybějící

Stav a předpovědi počasí z více než 4 000 letišť (zprávy METAR a TAF).

Červené a žluté tečky na mapě představují dostupné meteorologické stanice.

Když kurzor umístíte na tečku, zobrazí se název stanice.

Pak kliknutím zobrazíte stav a předpověď počasí.

Chcete-li změnit mapu, kliknutím na zelené tlačítko se znaménkem +mapu přiblížíte, kliknutím na zelené tlačítko se znaménkem – mapu oddálíte a kliknutím na zelené šipky přejdete na sousední mapy.


METAR-TAF: